Time;durP1;ratioP1;P1;durP2;ratioP2;P2;SDS_P1;SDS_P2;PMS_P1;PMS_P2;Temp;Humidity;BMP_temperature;BMP_pressure;BME280_temperature;BME280_humidity;BME280_pressure;Samples;Min_cycle;Max_cycle;Signal;HPM_P1;HPM_P2
2022/12/13 00:02:02;;;;;;;;;;;-2.10;99.90;;;;;;7344566;19;109857;-70
2022/12/13 00:04:29;;;;;;;;;;;-2.20;99.90;;;;;;7339114;19;108683;-71
2022/12/13 00:06:56;;;;;;;;;;;-2.20;99.90;;;;;;7341714;19;109093;-71
2022/12/13 00:09:23;;;;;;;;;;;-2.20;99.90;;;;;;7341400;19;109263;-70
2022/12/13 00:11:51;;;;;;;;;;;-2.20;99.90;;;;;;7339881;19;109245;-70
2022/12/13 00:14:17;;;;;;;;;;;-2.30;99.90;;;;;;7338672;19;109212;-71
2022/12/13 00:16:45;;;;;;;;;;;-2.30;99.90;;;;;;7339841;19;113088;-71
2022/12/13 00:19:13;;;;;;;;;;;-2.30;99.90;;;;;;7338595;19;108305;-71
2022/12/13 00:21:40;;;;;;;;;;;-2.30;99.90;;;;;;7339563;19;109555;-71
2022/12/13 00:24:07;;;;;;;;;;;-2.30;99.90;;;;;;7344016;19;110308;-70
2022/12/13 00:26:34;;;;;;;;;;;-2.30;99.90;;;;;;7340612;19;112652;-71
2022/12/13 00:29:02;;;;;;;;;;;-2.30;99.90;;;;;;7338026;19;111442;-71
2022/12/13 00:31:30;;;;;;;;;;;-2.30;99.90;;;;;;7340556;19;109407;-71
2022/12/13 00:34:17;;;;;;;;;;;-2.30;99.90;;;;;;7338288;19;108839;-70
2022/12/13 00:36:45;;;;;;;;;;;-2.40;99.90;;;;;;7338908;19;111185;-70
2022/12/13 00:39:13;;;;;;;;;;;-2.40;99.90;;;;;;7337072;19;108728;-71
2022/12/13 00:41:40;;;;;;;;;;;-2.40;99.90;;;;;;7338948;19;108258;-70
2022/12/13 00:44:08;;;;;;;;;;;-2.40;99.90;;;;;;7342850;19;109391;-71
2022/12/13 00:46:35;;;;;;;;;;;-2.40;99.90;;;;;;7338213;19;109582;-70
2022/12/13 00:49:02;;;;;;;;;;;-2.40;99.90;;;;;;7337654;19;109265;-71
2022/12/13 00:51:30;;;;;;;;;;;-2.40;99.90;;;;;;7337410;19;108594;-70
2022/12/13 00:53:58;;;;;;;;;;;-2.40;99.90;;;;;;7338733;19;109423;-71
2022/12/13 00:56:26;;;;;;;;;;;-2.40;99.90;;;;;;7335543;19;109033;-71
2022/12/13 00:58:54;;;;;;;;;;;-2.40;99.90;;;;;;7336633;19;109207;-71
2022/12/13 01:01:23;;;;;;;;;;;-2.40;99.90;;;;;;7336339;19;109430;-71
2022/12/13 01:03:52;;;;;;;;;;;-2.40;99.90;;;;;;7340091;19;111050;-71
2022/12/13 01:06:21;;;;;;;;;;;-2.50;99.90;;;;;;7347345;19;111259;-71
2022/12/13 01:08:48;;;;;;;;;;;-2.50;99.90;;;;;;7345573;19;110716;-71
2022/12/13 01:11:15;;;;;;;;;;;-2.50;99.90;;;;;;7344323;19;108903;-71
2022/12/13 01:13:43;;;;;;;;;;;-2.50;99.90;;;;;;7345465;19;109239;-71
2022/12/13 01:16:11;;;;;;;;;;;-2.50;99.90;;;;;;7343601;19;110240;-71
2022/12/13 01:18:38;;;;;;;;;;;-2.50;99.90;;;;;;7345037;19;109075;-71
2022/12/13 01:21:12;;;;;;;;;;;-2.50;99.90;;;;;;7343511;19;109316;-71
2022/12/13 01:23:40;;;;;;;;;;;-2.50;99.90;;;;;;7344594;19;110779;-71
2022/12/13 01:26:08;;;;;;;;;;;-2.50;99.90;;;;;;7343789;19;108492;-71
2022/12/13 01:28:35;;;;;;;;;;;-2.60;99.90;;;;;;7349420;19;109527;-71
2022/12/13 01:31:03;;;;;;;;;;;-2.60;99.90;;;;;;7344998;19;108649;-71
2022/12/13 01:33:31;;;;;;;;;;;-2.60;99.90;;;;;;7343291;19;109199;-72
2022/12/13 01:36:01;;;;;;;;;;;-2.60;99.90;;;;;;7342191;19;111222;-71
2022/12/13 01:38:28;;;;;;;;;;;-2.50;99.90;;;;;;7341639;19;108546;-71
2022/12/13 01:40:59;;;;;;;;;;;-2.50;99.90;;;;;;7343486;19;109248;-71
2022/12/13 01:43:41;;;;;;;;;;;-2.50;99.90;;;;;;7342224;19;110369;-71
2022/12/13 01:46:09;;;;;;;;;;;-2.60;99.90;;;;;;7341592;19;108446;-71
2022/12/13 01:48:39;;;;;;;;;;;-2.60;99.90;;;;;;7343681;19;109129;-71
2022/12/13 01:51:08;;;;;;;;;;;-2.60;99.90;;;;;;7348621;19;111128;-71
2022/12/13 01:53:38;;;;;;;;;;;-2.60;99.90;;;;;;7345615;19;109666;-71
2022/12/13 01:56:11;;;;;;;;;;;-2.60;99.90;;;;;;7342557;19;110921;-71
2022/12/13 01:58:38;;;;;;;;;;;-2.50;99.90;;;;;;7344543;19;109186;-71
2022/12/13 02:01:05;;;;;;;;;;;-2.50;99.90;;;;;;7342215;19;109110;-71
2022/12/13 02:03:33;;;;;;;;;;;-2.60;99.90;;;;;;7339989;19;112825;-71
2022/12/13 02:06:06;;;;;;;;;;;-2.60;99.90;;;;;;7344136;19;109046;-71
2022/12/13 02:08:33;;;;;;;;;;;-2.60;99.90;;;;;;7344513;19;108756;-71
2022/12/13 02:11:02;;;;;;;;;;;-2.50;99.90;;;;;;7339962;19;109183;-71
2022/12/13 02:13:29;;;;;;;;;;;-2.50;99.90;;;;;;7347928;19;108818;-71
2022/12/13 02:16:19;;;;;;;;;;;-2.50;99.90;;;;;;7341314;19;110902;-71
2022/12/13 02:18:48;;;;;;;;;;;-2.40;99.90;;;;;;7341633;19;109093;-71
2022/12/13 02:21:19;;;;;;;;;;;-2.40;99.90;;;;;;7342161;19;108725;-71
2022/12/13 02:24:06;;;;;;;;;;;-2.50;99.90;;;;;;7340799;19;111248;-72
2022/12/13 02:26:34;;;;;;;;;;;-2.50;99.90;;;;;;7344692;19;110505;-71
2022/12/13 02:29:20;;;;;;;;;;;-2.50;99.90;;;;;;7344366;19;109327;-71
2022/12/13 02:31:59;;;;;;;;;;;-2.60;99.90;;;;;;7342533;19;109875;-71
2022/12/13 02:34:32;;;;;;;;;;;-2.60;99.90;;;;;;7341697;19;108448;-71
2022/12/13 02:37:18;;;;;;;;;;;-2.60;99.90;;;;;;7348730;19;109014;-71
2022/12/13 02:40:04;;;;;;;;;;;-2.60;99.90;;;;;;7341852;19;108937;-71
2022/12/13 02:42:35;;;;;;;;;;;-2.60;99.90;;;;;;7341214;19;109387;-71
2022/12/13 02:45:02;;;;;;;;;;;-2.50;99.90;;;;;;7340600;19;112142;-71
2022/12/13 02:47:30;;;;;;;;;;;-2.60;99.90;;;;;;7341506;19;110511;-73
2022/12/13 02:49:58;;;;;;;;;;;-2.60;99.90;;;;;;7342578;19;110253;-71
2022/12/13 02:52:26;;;;;;;;;;;-2.60;99.90;;;;;;7340495;19;110300;-71
2022/12/13 02:54:53;;;;;;;;;;;-2.60;99.90;;;;;;7341733;19;112509;-71
2022/12/13 02:57:34;;;;;;;;;;;-2.60;99.90;;;;;;7346305;19;109569;-71
2022/12/13 03:00:20;;;;;;;;;;;-2.50;99.90;;;;;;7341431;19;108394;-71
2022/12/13 03:02:56;;;;;;;;;;;-2.60;99.90;;;;;;7340503;19;109180;-71
2022/12/13 03:08:25;;;;;;;;;;;-2.60;99.90;;;;;;7339342;19;108668;-71
2022/12/13 03:10:52;;;;;;;;;;;-2.60;99.90;;;;;;7341956;19;109285;-71
2022/12/13 03:13:39;;;;;;;;;;;-2.60;99.90;;;;;;7339318;19;114297;-72
2022/12/13 03:16:12;;;;;;;;;;;-2.60;99.90;;;;;;7341428;19;108931;-72
2022/12/13 03:18:39;;;;;;;;;;;-2.60;99.90;;;;;;7338599;19;111815;-71
2022/12/13 03:21:10;;;;;;;;;;;-2.60;99.90;;;;;;7345516;19;110370;-71
2022/12/13 03:23:37;;;;;;;;;;;-2.60;99.90;;;;;;7340715;19;109632;-71
2022/12/13 03:26:06;;;;;;;;;;;-2.60;99.90;;;;;;7336054;19;110363;-71
2022/12/13 03:28:33;;;;;;;;;;;-2.60;99.90;;;;;;7340255;19;109484;-72
2022/12/13 03:31:00;;;;;;;;;;;-2.60;99.90;;;;;;7343578;19;109519;-71
2022/12/13 03:33:27;;;;;;;;;;;-2.60;99.90;;;;;;7340302;19;113059;-72
2022/12/13 03:35:54;;;;;;;;;;;-2.70;99.90;;;;;;7339733;19;108929;-71
2022/12/13 03:38:21;;;;;;;;;;;-2.80;99.90;;;;;;7341137;19;109318;-72
2022/12/13 03:40:59;;;;;;;;;;;-2.90;99.90;;;;;;7338153;19;110613;-71
2022/12/13 03:43:26;;;;;;;;;;;-3.00;99.90;;;;;;7345760;19;109784;-72
2022/12/13 03:45:54;;;;;;;;;;;-3.10;99.90;;;;;;7338918;19;113813;-72
2022/12/13 03:48:21;;;;;;;;;;;-3.10;99.90;;;;;;7338939;19;108737;-72
2022/12/13 03:50:50;;;;;;;;;;;-3.10;99.90;;;;;;7340182;19;108420;-71
2022/12/13 03:53:17;;;;;;;;;;;-3.00;99.90;;;;;;7339958;19;110794;-72
2022/12/13 03:55:59;;;;;;;;;;;-2.90;99.90;;;;;;7337381;19;109307;-71
2022/12/13 03:58:27;;;;;;;;;;;-2.90;99.90;;;;;;7337993;19;108426;-70
2022/12/13 04:01:06;;;;;;;;;;;-2.90;99.90;;;;;;7334646;19;110251;-70
2022/12/13 04:03:34;;;;;;;;;;;-2.80;99.90;;;;;;7340170;19;108737;-71
2022/12/13 04:06:01;;;;;;;;;;;-2.80;99.90;;;;;;7343923;19;109112;-70
2022/12/13 04:08:28;;;;;;;;;;;-2.80;99.90;;;;;;7338789;19;108532;-70
2022/12/13 04:10:55;;;;;;;;;;;-2.80;99.90;;;;;;7337667;19;111448;-70
2022/12/13 04:13:34;;;;;;;;;;;-2.90;99.90;;;;;;7337412;19;110221;-71
2022/12/13 04:16:01;;;;;;;;;;;-2.90;99.90;;;;;;7339312;19;108814;-71
2022/12/13 04:18:29;;;;;;;;;;;-3.00;99.90;;;;;;7338307;19;109119;-71
2022/12/13 04:20:56;;;;;;;;;;;-3.00;99.90;;;;;;7338393;19;113035;-71
2022/12/13 04:23:23;;;;;;;;;;;-3.00;99.90;;;;;;7338504;19;108625;-70
2022/12/13 04:25:50;;;;;;;;;;;-3.00;99.90;;;;;;7339156;19;109164;-70
2022/12/13 04:28:17;;;;;;;;;;;-2.90;99.90;;;;;;7342662;19;109287;-71
2022/12/13 04:30:49;;;;;;;;;;;-3.00;99.90;;;;;;7340507;19;109517;-71
2022/12/13 04:33:22;;;;;;;;;;;-2.90;99.90;;;;;;7336709;19;110317;-72
2022/12/13 04:35:50;;;;;;;;;;;-2.90;99.90;;;;;;7338889;19;108697;-70
2022/12/13 04:38:18;;;;;;;;;;;-2.90;99.90;;;;;;7338005;19;109726;-71
2022/12/13 04:40:45;;;;;;;;;;;-2.90;99.90;;;;;;7336703;19;109238;-71
2022/12/13 04:43:12;;;;;;;;;;;-2.90;99.90;;;;;;7336447;19;108835;-71
2022/12/13 04:45:39;;;;;;;;;;;-2.90;99.90;;;;;;7337812;19;109522;-71
2022/12/13 04:48:06;;;;;;;;;;;-2.90;99.90;;;;;;7337295;19;110383;-71
2022/12/13 04:50:33;;;;;;;;;;;-2.90;99.90;;;;;;7342668;19;108720;-71
2022/12/13 04:53:00;;;;;;;;;;;-2.90;99.90;;;;;;7337712;19;110011;-71
2022/12/13 04:55:27;;;;;;;;;;;-2.90;99.90;;;;;;7336109;19;108631;-71
2022/12/13 04:57:54;;;;;;;;;;;-2.90;99.90;;;;;;7338821;19;109232;-71
2022/12/13 05:00:21;;;;;;;;;;;-3.00;99.90;;;;;;7336531;19;110649;-71
2022/12/13 05:02:49;;;;;;;;;;;-3.00;99.90;;;;;;7337268;19;108754;-72
2022/12/13 05:05:16;;;;;;;;;;;-3.00;99.90;;;;;;7337097;19;109974;-71
2022/12/13 05:07:43;;;;;;;;;;;-3.00;99.90;;;;;;7339304;19;109050;-70
2022/12/13 05:10:11;;;;;;;;;;;-3.00;99.90;;;;;;7340339;19;109012;-71
2022/12/13 05:12:57;;;;;;;;;;;-3.00;99.90;;;;;;7337579;19;109212;-71
2022/12/13 05:15:26;;;;;;;;;;;-2.90;99.90;;;;;;7336809;19;108758;-71
2022/12/13 05:17:53;;;;;;;;;;;-2.90;99.90;;;;;;7336367;19;109701;-71
2022/12/13 05:20:20;;;;;;;;;;;-2.90;99.90;;;;;;7337489;19;110106;-71
2022/12/13 05:22:47;;;;;;;;;;;-3.00;99.90;;;;;;7337113;19;108420;-72
2022/12/13 05:25:14;;;;;;;;;;;-3.00;99.90;;;;;;7336683;19;109604;-71
2022/12/13 05:27:41;;;;;;;;;;;-3.10;99.90;;;;;;7338927;19;110180;-71
2022/12/13 05:30:08;;;;;;;;;;;-3.00;99.90;;;;;;7337005;19;108760;-71
2022/12/13 05:32:38;;;;;;;;;;;-3.00;99.90;;;;;;7343805;19;109649;-72
2022/12/13 05:35:10;;;;;;;;;;;-2.90;99.90;;;;;;7335211;19;109691;-77
2022/12/13 05:37:37;;;;;;;;;;;-2.90;99.90;;;;;;7339137;19;109378;-75
2022/12/13 05:40:05;;;;;;;;;;;-2.80;99.90;;;;;;7337469;19;108930;-72
2022/12/13 05:42:32;;;;;;;;;;;-2.90;99.90;;;;;;7337760;19;109277;-77
2022/12/13 05:44:58;;;;;;;;;;;-2.80;99.90;;;;;;7339519;19;109642;-76
2022/12/13 05:47:25;;;;;;;;;;;-2.80;99.90;;;;;;7335432;19;109261;-75
2022/12/13 05:49:52;;;;;;;;;;;-2.80;99.90;;;;;;7341086;19;109207;-76
2022/12/13 05:52:20;;;;;;;;;;;-2.90;99.90;;;;;;7340643;19;109308;-78
2022/12/13 05:54:56;;;;;;;;;;;-2.90;99.90;;;;;;7349193;19;109642;-71
2022/12/13 05:57:27;;;;;;;;;;;-2.90;99.90;;;;;;7340737;19;109145;-71
2022/12/13 05:59:54;;;;;;;;;;;-3.00;99.90;;;;;;7341886;19;112759;-73
2022/12/13 06:02:21;;;;;;;;;;;-3.00;99.90;;;;;;7344453;19;109447;-71
2022/12/13 06:04:48;;;;;;;;;;;-3.00;99.90;;;;;;7342884;19;109425;-72
2022/12/13 06:07:15;;;;;;;;;;;-3.00;99.90;;;;;;7338622;19;109768;-71
2022/12/13 06:09:42;;;;;;;;;;;-3.00;99.90;;;;;;7344389;19;108890;-73
2022/12/13 06:12:09;;;;;;;;;;;-3.00;99.90;;;;;;7339176;19;109114;-71
2022/12/13 06:14:56;;;;;;;;;;;-3.10;99.90;;;;;;7341588;19;111833;-71
2022/12/13 06:17:43;;;;;;;;;;;-3.10;99.90;;;;;;7340158;19;108847;-71
2022/12/13 06:20:10;;;;;;;;;;;-3.10;99.90;;;;;;7333594;19;109994;-71
2022/12/13 06:22:53;;;;;;;;;;;-3.10;99.90;;;;;;7337190;19;109085;-71
2022/12/13 06:25:19;;;;;;;;;;;-3.20;99.90;;;;;;7339285;19;109755;-71
2022/12/13 06:28:00;;;;;;;;;;;-3.20;99.90;;;;;;7341137;19;109300;-71
2022/12/13 06:30:30;;;;;;;;;;;-3.20;99.90;;;;;;7339883;19;108428;-71
2022/12/13 06:32:57;;;;;;;;;;;-3.30;99.90;;;;;;7342805;19;108850;-71
2022/12/13 06:35:24;;;;;;;;;;;-3.30;99.90;;;;;;7339546;19;110371;-76
2022/12/13 06:37:55;;;;;;;;;;;-3.30;99.90;;;;;;7341892;19;108353;-76
2022/12/13 06:40:28;;;;;;;;;;;-3.30;99.90;;;;;;7344874;19;110281;-75
2022/12/13 06:42:55;;;;;;;;;;;-3.20;99.90;;;;;;7340218;19;108750;-72
2022/12/13 06:45:22;;;;;;;;;;;-3.30;99.90;;;;;;7338012;19;109185;-80
2022/12/13 06:47:48;;;;;;;;;;;-3.20;99.90;;;;;;7337907;19;110474;-77
2022/12/13 06:50:15;;;;;;;;;;;-3.20;99.90;;;;;;7339690;19;108346;-70
2022/12/13 06:52:44;;;;;;;;;;;-3.20;99.90;;;;;;7338941;19;110343;-70
2022/12/13 06:55:12;;;;;;;;;;;-3.20;99.90;;;;;;7339935;19;110566;-71
2022/12/13 06:57:39;;;;;;;;;;;-3.30;99.90;;;;;;7338365;19;108425;-71
2022/12/13 07:00:07;;;;;;;;;;;-3.20;99.90;;;;;;7340403;19;109669;-71
2022/12/13 07:02:34;;;;;;;;;;;-3.20;99.90;;;;;;7336792;19;109350;-71
2022/12/13 07:05:02;;;;;;;;;;;-3.20;99.90;;;;;;7339857;19;111296;-70
2022/12/13 07:07:29;;;;;;;;;;;-3.20;99.90;;;;;;7339500;19;110185;-72
2022/12/13 07:09:56;;;;;;;;;;;-3.20;99.90;;;;;;7339707;19;109621;-70
2022/12/13 07:12:23;;;;;;;;;;;-3.20;99.90;;;;;;7341331;19;109885;-70
2022/12/13 07:14:50;;;;;;;;;;;-3.20;99.90;;;;;;7340716;19;110219;-70
2022/12/13 07:17:17;;;;;;;;;;;-3.20;99.90;;;;;;7341349;19;108417;-70
2022/12/13 07:20:00;;;;;;;;;;;-3.20;99.90;;;;;;7340776;19;109162;-70
2022/12/13 07:22:27;;;;;;;;;;;-3.30;99.90;;;;;;7344505;19;110137;-72
2022/12/13 07:25:00;;;;;;;;;;;-3.30;99.90;;;;;;7339837;19;108146;-70
2022/12/13 07:27:27;;;;;;;;;;;-3.30;99.90;;;;;;7339797;19;108817;-70
2022/12/13 07:29:54;;;;;;;;;;;-3.30;99.90;;;;;;7341264;19;108763;-70
2022/12/13 07:32:21;;;;;;;;;;;-3.30;99.90;;;;;;7339033;19;109236;-70
2022/12/13 07:34:47;;;;;;;;;;;-3.20;99.90;;;;;;7340322;19;112852;-70
2022/12/13 07:37:14;;;;;;;;;;;-3.20;99.90;;;;;;7339769;19;109736;-70
2022/12/13 07:39:57;;;;;;;;;;;-3.30;99.90;;;;;;7337243;19;109623;-70
2022/12/13 07:42:29;;;;;;;;;;;-3.30;99.90;;;;;;7338054;19;109642;-70
2022/12/13 07:45:00;;;;;;;;;;;-3.30;99.90;;;;;;7343635;19;119650;-70
2022/12/13 07:47:28;;;;;;;;;;;-3.30;99.90;;;;;;7336517;19;109787;-70
2022/12/13 07:49:55;;;;;;;;;;;-3.30;99.90;;;;;;7338381;19;109281;-70
2022/12/13 07:52:22;;;;;;;;;;;-3.20;99.90;;;;;;7338736;19;109451;-70
2022/12/13 07:54:49;;;;;;;;;;;-3.20;99.90;;;;;;7340901;19;109863;-70
2022/12/13 07:57:16;;;;;;;;;;;-3.20;99.90;;;;;;7338570;19;108378;-70
2022/12/13 07:59:43;;;;;;;;;;;-3.20;99.90;;;;;;7340068;19;110636;-70
2022/12/13 08:02:11;;;;;;;;;;;-3.20;99.90;;;;;;7337455;19;109790;-70
2022/12/13 08:04:40;;;;;;;;;;;-3.20;99.90;;;;;;7337240;19;109372;-70
2022/12/13 08:07:08;;;;;;;;;;;-3.10;99.90;;;;;;7340020;19;110093;-70
2022/12/13 08:09:35;;;;;;;;;;;-3.00;99.90;;;;;;7340553;19;108563;-70
2022/12/13 08:12:05;;;;;;;;;;;-2.90;99.90;;;;;;7339330;19;110426;-70
2022/12/13 08:14:32;;;;;;;;;;;-2.80;99.90;;;;;;7337701;19;109560;-70
2022/12/13 08:16:59;;;;;;;;;;;-2.70;99.90;;;;;;7339340;19;109188;-70
2022/12/13 08:19:26;;;;;;;;;;;-2.60;99.90;;;;;;7338510;19;109625;-70
2022/12/13 08:21:55;;;;;;;;;;;-2.60;99.90;;;;;;7338722;19;112950;-70
2022/12/13 08:24:28;;;;;;;;;;;-2.50;99.90;;;;;;7337148;19;108503;-70
2022/12/13 08:27:00;;;;;;;;;;;-2.50;99.90;;;;;;7337534;19;108808;-70
2022/12/13 08:29:28;;;;;;;;;;;-2.40;99.90;;;;;;7342649;19;110193;-70
2022/12/13 08:32:01;;;;;;;;;;;-2.40;99.90;;;;;;7338526;19;109444;-69
2022/12/13 08:34:28;;;;;;;;;;;-2.30;99.90;;;;;;7338238;19;114166;-70
2022/12/13 08:36:55;;;;;;;;;;;-2.30;99.90;;;;;;7338314;19;108677;-70
2022/12/13 08:39:35;;;;;;;;;;;-2.20;99.90;;;;;;7337460;19;110099;-70
2022/12/13 08:42:03;;;;;;;;;;;-2.10;99.90;;;;;;7338839;19;110646;-70
2022/12/13 08:44:50;;;;;;;;;;;-2.10;99.90;;;;;;7338219;19;110450;-70
2022/12/13 08:47:18;;;;;;;;;;;-2.10;99.90;;;;;;7339446;19;108362;-70
2022/12/13 08:49:51;;;;;;;;;;;-2.00;99.90;;;;;;7335672;19;110300;-70
2022/12/13 08:52:19;;;;;;;;;;;-2.00;99.90;;;;;;7341217;19;112472;-70
2022/12/13 08:54:46;;;;;;;;;;;-2.00;99.90;;;;;;7336505;19;110066;-70
2022/12/13 08:57:13;;;;;;;;;;;-1.90;99.90;;;;;;7335136;19;112217;-70
2022/12/13 08:59:40;;;;;;;;;;;-1.90;99.90;;;;;;7338404;19;109692;-70
2022/12/13 09:02:10;;;;;;;;;;;-1.80;99.90;;;;;;7335942;19;110108;-70
2022/12/13 09:04:37;;;;;;;;;;;-1.80;99.90;;;;;;7338998;19;109885;-70
2022/12/13 09:07:04;;;;;;;;;;;-1.70;99.90;;;;;;7336783;19;109679;-70
2022/12/13 09:09:31;;;;;;;;;;;-1.60;99.90;;;;;;7332901;19;110222;-70
2022/12/13 09:11:58;;;;;;;;;;;-1.50;99.90;;;;;;7344194;19;109908;-70
2022/12/13 09:14:26;;;;;;;;;;;-1.40;99.90;;;;;;7333361;19;108967;-70
2022/12/13 09:17:01;;;;;;;;;;;-1.30;99.90;;;;;;7337750;19;108620;-70
2022/12/13 09:19:29;;;;;;;;;;;-1.30;99.90;;;;;;7334389;19;109338;-70
2022/12/13 09:22:03;;;;;;;;;;;-1.20;99.90;;;;;;7337350;19;113953;-70
2022/12/13 09:24:31;;;;;;;;;;;-1.10;99.90;;;;;;7338769;19;109074;-70
2022/12/13 09:27:03;;;;;;;;;;;-1.10;99.90;;;;;;7345734;19;108900;-70
2022/12/13 09:29:36;;;;;;;;;;;-1.10;99.90;;;;;;7345935;19;110678;-70
2022/12/13 09:32:03;;;;;;;;;;;-1.10;99.90;;;;;;7345418;19;108957;-70
2022/12/13 09:34:31;;;;;;;;;;;-1.10;99.90;;;;;;7350033;19;109301;-70
2022/12/13 09:36:59;;;;;;;;;;;-0.90;99.90;;;;;;7345076;19;108746;-70
2022/12/13 09:39:27;;;;;;;;;;;-0.80;99.90;;;;;;7345300;19;109557;-70
2022/12/13 09:41:56;;;;;;;;;;;-0.70;99.90;;;;;;7344764;19;110791;-70
2022/12/13 09:44:29;;;;;;;;;;;-0.60;99.90;;;;;;7346073;19;108907;-70
2022/12/13 09:47:21;;;;;;;;;;;-0.50;99.90;;;;;;7343678;19;112449;-70
2022/12/13 09:49:50;;;;;;;;;;;-0.40;99.90;;;;;;7344516;19;110160;-70
2022/12/13 09:52:19;;;;;;;;;;;-0.30;99.90;;;;;;7343304;19;108666;-70
2022/12/13 09:54:49;;;;;;;;;;;-0.30;99.90;;;;;;7343359;19;110377;-70
2022/12/13 09:57:21;;;;;;;;;;;-0.30;99.90;;;;;;7345766;19;110315;-69
2022/12/13 10:00:00;;;;;;;;;;;-0.30;99.90;;;;;;7343137;19;109261;-69
2022/12/13 10:02:28;;;;;;;;;;;-0.30;99.90;;;;;;7343051;19;110009;-70
2022/12/13 10:05:21;;;;;;;;;;;-0.30;99.90;;;;;;7344529;19;109384;-70
2022/12/13 10:08:14;;;;;;;;;;;-0.30;99.90;;;;;;7344208;19;109161;-69
2022/12/13 10:10:42;;;;;;;;;;;-0.30;99.90;;;;;;7344012;19;110330;-69
2022/12/13 10:13:09;;;;;;;;;;;-0.30;99.90;;;;;;7343065;19;108577;-69
2022/12/13 10:15:37;;;;;;;;;;;-0.20;99.90;;;;;;7344300;19;108731;-69
2022/12/13 10:18:05;;;;;;;;;;;0.00;99.90;;;;;;7342305;19;110220;-69
2022/12/13 10:20:33;;;;;;;;;;;0.00;99.90;;;;;;7349858;19;109013;-69
2022/12/13 10:23:00;;;;;;;;;;;0.10;99.90;;;;;;7345352;19;110359;-69
2022/12/13 10:25:49;;;;;;;;;;;0.20;99.90;;;;;;7343684;19;108809;-69
2022/12/13 10:28:23;;;;;;;;;;;0.30;99.90;;;;;;7345405;19;109050;-69
2022/12/13 10:30:49;;;;;;;;;;;0.40;99.90;;;;;;7342869;19;111038;-69
2022/12/13 10:33:21;;;;;;;;;;;0.50;99.90;;;;;;7344444;19;108692;-69
2022/12/13 10:36:07;;;;;;;;;;;0.60;99.90;;;;;;7339740;19;110210;-69
2022/12/13 10:38:39;;;;;;;;;;;0.60;99.90;;;;;;7341401;19;109260;-69
2022/12/13 10:41:25;;;;;;;;;;;0.60;99.90;;;;;;7341959;19;108809;-69
2022/12/13 10:44:13;;;;;;;;;;;0.70;99.90;;;;;;7347990;19;108645;-69
2022/12/13 10:46:41;;;;;;;;;;;0.70;99.90;;;;;;7343672;19;108726;-69
2022/12/13 10:49:34;;;;;;;;;;;0.70;99.90;;;;;;7341939;19;110769;-69
2022/12/13 10:52:01;;;;;;;;;;;0.80;99.90;;;;;;7339566;19;110448;-69
2022/12/13 10:54:30;;;;;;;;;;;0.90;99.90;;;;;;7339990;19;109724;-69
2022/12/13 10:57:14;;;;;;;;;;;1.00;99.90;;;;;;7341565;19;109363;-69
2022/12/13 10:59:41;;;;;;;;;;;1.10;99.90;;;;;;7342646;19;110762;-69
2022/12/13 11:02:26;;;;;;;;;;;1.20;99.90;;;;;;7343327;19;109057;-69
2022/12/13 11:04:54;;;;;;;;;;;1.40;99.90;;;;;;7342174;19;108954;-69
2022/12/13 11:07:21;;;;;;;;;;;1.40;99.90;;;;;;7346077;19;108880;-69
2022/12/13 11:09:47;;;;;;;;;;;1.50;99.90;;;;;;7342824;19;109133;-69
2022/12/13 11:12:20;;;;;;;;;;;1.40;99.90;;;;;;7340541;19;110151;-69
2022/12/13 11:14:59;;;;;;;;;;;1.50;99.90;;;;;;7341335;19;108956;-69
2022/12/13 11:17:27;;;;;;;;;;;1.50;99.90;;;;;;7338835;19;109709;-69
2022/12/13 11:20:01;;;;;;;;;;;1.60;99.90;;;;;;7341458;19;109530;-69
2022/12/13 11:22:33;;;;;;;;;;;1.70;99.90;;;;;;7340548;19;109910;-69
2022/12/13 11:25:21;;;;;;;;;;;1.80;99.90;;;;;;7342117;19;110842;-69
2022/12/13 11:28:06;;;;;;;;;;;1.90;99.90;;;;;;7346296;19;109936;-69
2022/12/13 11:31:08;;;;;;;;;;;1.90;99.90;;;;;;7341715;19;109650;-69
2022/12/13 11:33:36;;;;;;;;;;;1.90;99.90;;;;;;7340066;19;109190;-69
2022/12/13 11:36:37;;;;;;;;;;;2.00;99.90;;;;;;7335241;19;108870;-69
2022/12/13 11:39:05;;;;;;;;;;;2.10;99.90;;;;;;7338650;19;109156;-69
2022/12/13 11:41:38;;;;;;;;;;;2.30;99.90;;;;;;7338468;19;109543;-69
2022/12/13 11:44:21;;;;;;;;;;;2.30;99.90;;;;;;7341115;19;108239;-69
2022/12/13 11:46:53;;;;;;;;;;;2.30;99.90;;;;;;7337549;19;111147;-69
2022/12/13 11:49:26;;;;;;;;;;;2.30;99.90;;;;;;7339074;19;110349;-69
2022/12/13 11:52:00;;;;;;;;;;;2.30;99.90;;;;;;7345210;19;108777;-69
2022/12/13 11:54:42;;;;;;;;;;;2.40;99.90;;;;;;7338059;19;110306;-69
2022/12/13 11:57:15;;;;;;;;;;;2.40;99.90;;;;;;7338942;19;108472;-70
2022/12/13 11:59:46;;;;;;;;;;;2.40;99.90;;;;;;7341439;19;109777;-69
2022/12/13 12:02:24;;;;;;;;;;;2.40;99.90;;;;;;7338780;19;110770;-69
2022/12/13 12:04:53;;;;;;;;;;;2.40;99.90;;;;;;7341264;19;108537;-69
2022/12/13 12:07:40;;;;;;;;;;;2.40;99.90;;;;;;7337647;19;109639;-69
2022/12/13 12:10:40;;;;;;;;;;;2.50;99.90;;;;;;7336672;19;112133;-69
2022/12/13 12:13:20;;;;;;;;;;;2.30;99.90;;;;;;7336725;19;109444;-69
2022/12/13 12:16:04;;;;;;;;;;;2.40;99.90;;;;;;7344735;19;110132;-68
2022/12/13 12:18:32;;;;;;;;;;;2.40;99.90;;;;;;7338053;19;108949;-69
2022/12/13 12:21:17;;;;;;;;;;;2.40;99.90;;;;;;7336195;19;108777;-69
2022/12/13 12:23:44;;;;;;;;;;;2.50;99.90;;;;;;7332831;19;112545;-69
2022/12/13 12:26:20;;;;;;;;;;;2.50;99.90;;;;;;7337572;19;108336;-69
2022/12/13 12:28:50;;;;;;;;;;;2.40;99.90;;;;;;7339225;19;108572;-69
2022/12/13 12:31:29;;;;;;;;;;;2.30;99.90;;;;;;7336132;19;113952;-69
2022/12/13 12:34:12;;;;;;;;;;;2.30;99.90;;;;;;7339310;19;108547;-69
2022/12/13 12:36:44;;;;;;;;;;;2.10;99.90;;;;;;7338748;19;109893;-69
2022/12/13 12:39:30;;;;;;;;;;;2.10;99.90;;;;;;7334054;19;110075;-70
2022/12/13 12:41:57;;;;;;;;;;;2.20;99.90;;;;;;7332524;19;110261;-69
2022/12/13 12:44:33;;;;;;;;;;;2.20;99.90;;;;;;7332109;19;110160;-69
2022/12/13 12:47:09;;;;;;;;;;;2.10;99.90;;;;;;7334790;19;108900;-69
2022/12/13 12:50:17;;;;;;;;;;;1.90;99.90;;;;;;7333205;19;108961;-69
2022/12/13 12:52:53;;;;;;;;;;;1.80;99.90;;;;;;7333934;19;110736;-69
2022/12/13 12:55:38;;;;;;;;;;;1.80;99.90;;;;;;7335535;19;108566;-70
2022/12/13 12:58:21;;;;;;;;;;;1.80;99.90;;;;;;7336848;19;110579;-69
2022/12/13 13:00:57;;;;;;;;;;;1.70;99.90;;;;;;7338171;19;110263;-77
2022/12/13 13:03:26;;;;;;;;;;;1.60;99.90;;;;;;7341919;19;108316;-78
2022/12/13 13:06:11;;;;;;;;;;;1.60;99.90;;;;;;7336848;19;110442;-75
2022/12/13 13:08:41;;;;;;;;;;;1.50;99.90;;;;;;7335598;19;108908;-76
2022/12/13 13:11:08;;;;;;;;;;;1.50;99.90;;;;;;7337514;19;113766;-74
2022/12/13 13:13:56;;;;;;;;;;;1.50;99.90;;;;;;7336579;19;111697;-74
2022/12/13 13:16:33;;;;;;;;;;;1.50;99.90;;;;;;7333253;19;108233;-70
2022/12/13 13:19:02;;;;;;;;;;;1.60;99.90;;;;;;7335627;19;110190;-71
2022/12/13 13:21:29;;;;;;;;;;;1.50;99.90;;;;;;7336151;19;112902;-69
2022/12/13 13:24:08;;;;;;;;;;;1.50;99.90;;;;;;7335657;19;108957;-69
2022/12/13 13:26:36;;;;;;;;;;;1.30;99.90;;;;;;7340050;19;111159;-69
2022/12/13 13:29:22;;;;;;;;;;;1.20;99.90;;;;;;7330710;19;108942;-72
2022/12/13 13:31:56;;;;;;;;;;;1.20;99.90;;;;;;7335329;19;109241;-72
2022/12/13 13:34:47;;;;;;;;;;;1.40;99.90;;;;;;7334372;19;109192;-72
2022/12/13 13:37:20;;;;;;;;;;;1.50;99.90;;;;;;7335401;19;110011;-72
2022/12/13 13:39:51;;;;;;;;;;;1.50;99.90;;;;;;7334336;19;109184;-72
2022/12/13 13:42:19;;;;;;;;;;;1.40;99.90;;;;;;7335349;19;111079;-72
2022/12/13 13:44:50;;;;;;;;;;;1.50;99.90;;;;;;7336732;19;108745;-72
2022/12/13 13:47:19;;;;;;;;;;;1.30;99.90;;;;;;7340446;19;108799;-72
2022/12/13 13:50:05;;;;;;;;;;;1.30;99.90;;;;;;7335934;19;108470;-72
2022/12/13 13:52:51;;;;;;;;;;;1.20;99.90;;;;;;7335763;19;109242;-71
2022/12/13 13:55:24;;;;;;;;;;;1.20;99.90;;;;;;7334980;19;109751;-72
2022/12/13 13:58:02;;;;;;;;;;;1.40;99.90;;;;;;7335051;19;108657;-72
2022/12/13 14:00:37;;;;;;;;;;;1.50;99.90;;;;;;7336085;19;112008;-71
2022/12/13 14:03:07;;;;;;;;;;;1.70;99.90;;;;;;7333889;19;111497;-72
2022/12/13 14:06:00;;;;;;;;;;;1.80;99.90;;;;;;7336847;19;108620;-71
2022/12/13 14:08:45;;;;;;;;;;;1.90;99.90;;;;;;7336244;19;109216;-72
2022/12/13 14:11:15;;;;;;;;;;;1.90;99.90;;;;;;7344380;19;109270;-73
2022/12/13 14:13:48;;;;;;;;;;;1.90;99.90;;;;;;7343385;19;109610;-72
2022/12/13 14:16:14;;;;;;;;;;;1.80;99.90;;;;;;7342364;19;109757;-72
2022/12/13 14:18:46;;;;;;;;;;;1.70;99.90;;;;;;7344729;19;109182;-71
2022/12/13 14:21:16;;;;;;;;;;;1.60;99.90;;;;;;7342262;19;109949;-72
2022/12/13 14:23:49;;;;;;;;;;;1.60;99.90;;;;;;7342020;19;109219;-73
2022/12/13 14:26:35;;;;;;;;;;;1.60;99.90;;;;;;7341995;19;109561;-72
2022/12/13 14:29:04;;;;;;;;;;;1.60;99.90;;;;;;7343476;19;109903;-74
2022/12/13 14:31:34;;;;;;;;;;;1.70;99.90;;;;;;7340506;19;109735;-72
2022/12/13 14:34:02;;;;;;;;;;;1.70;99.90;;;;;;7348589;19;108776;-72
2022/12/13 14:36:35;;;;;;;;;;;1.60;99.90;;;;;;7339057;19;109336;-72
2022/12/13 14:39:12;;;;;;;;;;;1.40;99.90;;;;;;7342574;19;109380;-72